createdAt,value
2023-04-10T00:00:08.549Z,3.90
2023-04-10T00:02:39.047Z,6.33
2023-04-10T00:05:07.363Z,4.03
2023-04-10T00:07:34.440Z,6.27
2023-04-10T00:10:01.376Z,7.77
2023-04-10T00:12:28.415Z,5.97
2023-04-10T00:14:55.684Z,7.10
2023-04-10T00:17:22.792Z,9.20
2023-04-10T00:19:49.754Z,4.87
2023-04-10T00:22:16.728Z,5.97
2023-04-10T00:24:43.634Z,5.23
2023-04-10T00:27:10.843Z,4.60
2023-04-10T00:29:37.746Z,3.70
2023-04-10T00:32:04.704Z,6.73
2023-04-10T00:34:32.373Z,5.60
2023-04-10T00:36:59.832Z,6.13
2023-04-10T00:39:26.788Z,10.30
2023-04-10T00:41:53.805Z,5.47
2023-04-10T00:44:21.163Z,4.60
2023-04-10T00:46:48.172Z,6.00
2023-04-10T00:49:15.476Z,4.07
2023-04-10T00:51:43.739Z,6.53
2023-04-10T00:54:12.179Z,5.83
2023-04-10T00:56:39.919Z,4.97
2023-04-10T00:59:07.392Z,5.47
2023-04-10T01:01:34.545Z,4.07
2023-04-10T01:04:01.700Z,4.70
2023-04-10T01:06:52.029Z,5.33
2023-04-10T01:09:41.255Z,5.40
2023-04-10T01:12:36.603Z,5.03
2023-04-10T01:15:11.454Z,4.10
2023-04-10T01:17:41.591Z,7.17
2023-04-10T01:20:18.024Z,4.97
2023-04-10T01:23:09.848Z,6.70
2023-04-10T01:25:58.826Z,4.50
2023-04-10T01:29:04.348Z,4.70
2023-04-10T01:31:57.165Z,5.33
2023-04-10T01:34:36.067Z,5.77
2023-04-10T01:37:08.558Z,8.00
2023-04-10T01:39:39.378Z,5.80
2023-04-10T01:42:09.070Z,6.77
2023-04-10T01:44:41.760Z,5.50
2023-04-10T01:47:08.748Z,5.33
2023-04-10T01:49:37.510Z,4.23
2023-04-10T01:52:06.624Z,5.00
2023-04-10T01:54:34.702Z,5.23
2023-04-10T01:57:05.093Z,4.67
2023-04-10T01:59:32.084Z,5.97
2023-04-10T02:02:00.877Z,5.80
2023-04-10T02:04:28.565Z,4.67
2023-04-10T02:07:22.133Z,4.80
2023-04-10T02:10:13.070Z,6.40
2023-04-10T02:12:46.269Z,4.43
2023-04-10T02:15:14.154Z,5.90
2023-04-10T02:17:42.014Z,5.27
2023-04-10T02:20:10.637Z,5.03
2023-04-10T02:22:37.747Z,4.87
2023-04-10T02:25:06.117Z,4.50
2023-04-10T02:27:35.833Z,5.10
2023-04-10T02:30:04.098Z,5.57
2023-04-10T02:32:33.364Z,5.53
2023-04-10T02:35:01.803Z,5.50
2023-04-10T02:37:29.085Z,5.67
2023-04-10T02:39:56.175Z,5.47
2023-04-10T02:42:23.145Z,3.47
2023-04-10T02:44:50.184Z,5.07
2023-04-10T02:47:18.719Z,4.53
2023-04-10T02:49:45.948Z,5.37
2023-04-10T02:52:13.029Z,5.50
2023-04-10T02:54:40.433Z,4.53
2023-04-10T02:57:07.424Z,4.17
2023-04-10T02:59:34.445Z,4.53
2023-04-10T03:02:01.424Z,4.10
2023-04-10T03:04:29.176Z,4.23
2023-04-10T03:06:56.285Z,7.17
2023-04-10T03:09:23.246Z,5.30
2023-04-10T03:11:50.185Z,4.77
2023-04-10T03:14:17.942Z,4.93
2023-04-10T03:16:44.873Z,3.70
2023-04-10T03:19:12.817Z,5.70
2023-04-10T03:21:39.988Z,6.67
2023-04-10T03:24:07.206Z,4.93
2023-04-10T03:26:34.204Z,6.17
2023-04-10T03:29:01.224Z,5.47
2023-04-10T03:31:28.308Z,4.20
2023-04-10T03:33:55.858Z,6.77
2023-04-10T03:36:23.013Z,5.00
2023-04-10T03:38:50.003Z,4.27
2023-04-10T03:41:16.915Z,4.23
2023-04-10T03:43:43.824Z,4.07
2023-04-10T03:46:10.794Z,4.63
2023-04-10T03:48:37.757Z,4.67
2023-04-10T03:51:04.869Z,6.40
2023-04-10T03:53:36.072Z,3.53
2023-04-10T03:56:03.857Z,4.13
2023-04-10T03:58:30.836Z,4.80
2023-04-10T04:00:57.808Z,4.60
2023-04-10T04:03:25.004Z,5.10
2023-04-10T04:05:52.450Z,7.60
2023-04-10T04:08:19.445Z,4.77
2023-04-10T04:10:46.383Z,4.30
2023-04-10T04:13:13.359Z,6.53
2023-04-10T04:15:40.410Z,5.57
2023-04-10T04:18:07.426Z,4.07
2023-04-10T04:20:34.384Z,4.93
2023-04-10T04:23:01.271Z,5.60
2023-04-10T04:25:28.305Z,5.33
2023-04-10T04:27:55.645Z,5.70
2023-04-10T04:30:22.632Z,6.20
2023-04-10T04:32:49.638Z,6.17
2023-04-10T04:35:17.315Z,4.73
2023-04-10T04:37:44.210Z,4.60
2023-04-10T04:40:11.506Z,6.67
2023-04-10T04:42:38.451Z,4.30
2023-04-10T04:45:05.980Z,4.10
2023-04-10T04:47:32.951Z,5.17
2023-04-10T04:49:59.847Z,4.50
2023-04-10T04:52:27.581Z,5.80
2023-04-10T04:54:54.532Z,4.87
2023-04-10T04:57:21.798Z,4.23
2023-04-10T04:59:48.692Z,5.10
2023-04-10T05:02:16.881Z,6.23
2023-04-10T05:04:43.994Z,4.87
2023-04-10T05:07:12.172Z,4.07
2023-04-10T05:09:39.140Z,3.83
2023-04-10T05:12:06.437Z,7.70
2023-04-10T05:14:33.359Z,3.77
2023-04-10T05:17:02.955Z,4.57
2023-04-10T05:19:30.519Z,6.13
2023-04-10T05:21:57.638Z,3.73
2023-04-10T05:24:24.638Z,5.63
2023-04-10T05:26:51.723Z,4.17
2023-04-10T05:29:18.646Z,5.43
2023-04-10T05:31:46.230Z,4.13
2023-04-10T05:34:13.206Z,6.30
2023-04-10T05:36:40.198Z,2.93
2023-04-10T05:39:07.150Z,4.17
2023-04-10T05:41:34.162Z,4.20
2023-04-10T05:44:01.280Z,5.13
2023-04-10T05:46:28.254Z,5.40
2023-04-10T05:48:55.655Z,4.07
2023-04-10T05:51:22.868Z,4.60
2023-04-10T05:53:50.821Z,5.33
2023-04-10T05:56:17.854Z,3.53
2023-04-10T05:58:44.840Z,4.63
2023-04-10T06:01:13.499Z,4.30
2023-04-10T06:03:40.648Z,3.60
2023-04-10T06:06:08.345Z,6.77
2023-04-10T06:08:35.335Z,8.17
2023-04-10T06:11:02.255Z,4.37
2023-04-10T06:13:29.192Z,5.23
2023-04-10T06:15:56.155Z,4.63
2023-04-10T06:18:23.114Z,4.57
2023-04-10T06:20:49.997Z,3.80
2023-04-10T06:23:16.981Z,4.20
2023-04-10T06:25:44.210Z,4.13
2023-04-10T06:28:11.301Z,4.83
2023-04-10T06:30:38.279Z,4.00
2023-04-10T06:33:05.474Z,3.63
2023-04-10T06:35:32.868Z,3.27
2023-04-10T06:37:59.904Z,3.87
2023-04-10T06:40:29.379Z,3.77
2023-04-10T06:42:56.725Z,4.30
2023-04-10T06:45:23.736Z,2.60
2023-04-10T06:47:51.054Z,3.17
2023-04-10T06:50:18.107Z,4.10
2023-04-10T06:52:45.725Z,3.53
2023-04-10T06:55:15.383Z,3.90
2023-04-10T06:57:42.319Z,3.87
2023-04-10T07:00:09.856Z,3.90
2023-04-10T07:02:36.782Z,2.10
2023-04-10T07:05:03.965Z,5.97
2023-04-10T07:07:31.565Z,3.33
2023-04-10T07:09:58.670Z,3.20
2023-04-10T07:12:26.630Z,2.40
2023-04-10T07:14:53.537Z,2.37
2023-04-10T07:17:21.433Z,2.37
2023-04-10T07:19:48.353Z,2.47
2023-04-10T07:22:15.882Z,2.23
2023-04-10T07:24:43.045Z,12.73
2023-04-10T07:27:10.341Z,5.57
2023-04-10T07:29:37.282Z,3.40
2023-04-10T07:32:04.620Z,4.57
2023-04-10T07:34:32.328Z,2.80
2023-04-10T07:36:59.394Z,3.73
2023-04-10T07:39:26.628Z,2.93
2023-04-10T07:41:54.765Z,2.60
2023-04-10T07:44:21.822Z,3.07
2023-04-10T07:46:48.747Z,1.60
2023-04-10T07:49:15.725Z,2.13
2023-04-10T07:51:42.725Z,2.17
2023-04-10T07:54:09.648Z,3.30
2023-04-10T07:56:36.632Z,3.57
2023-04-10T07:59:03.736Z,2.20
2023-04-10T08:01:30.834Z,4.47
2023-04-10T08:03:58.011Z,1.77
2023-04-10T08:06:25.867Z,3.50
2023-04-10T08:08:53.259Z,2.70
2023-04-10T08:11:24.879Z,3.80
2023-04-10T08:13:53.270Z,2.30
2023-04-10T08:16:28.712Z,3.97
2023-04-10T08:18:57.570Z,2.33
2023-04-10T08:21:26.817Z,2.87
2023-04-10T08:23:58.803Z,2.20
2023-04-10T08:26:26.708Z,3.87
2023-04-10T08:28:55.648Z,2.73
2023-04-10T08:31:24.319Z,1.70
2023-04-10T08:33:52.031Z,2.13
2023-04-10T08:36:20.440Z,2.20
2023-04-10T08:38:48.339Z,2.20
2023-04-10T08:41:17.914Z,2.63
2023-04-10T08:43:49.732Z,2.40
2023-04-10T08:46:17.092Z,3.27
2023-04-10T08:48:53.639Z,3.10
2023-04-10T08:51:26.689Z,2.70
2023-04-10T08:54:02.646Z,2.90
2023-04-10T08:56:32.716Z,2.33
2023-04-10T08:59:01.541Z,1.20
2023-04-10T09:01:28.654Z,2.17
2023-04-10T09:03:55.955Z,2.57
2023-04-10T09:06:23.243Z,1.73
2023-04-10T09:08:50.244Z,3.60
2023-04-10T09:11:17.220Z,1.93
2023-04-10T09:13:45.103Z,1.37
2023-04-10T09:16:13.664Z,1.80
2023-04-10T09:18:46.738Z,1.67
2023-04-10T09:21:24.101Z,1.80
2023-04-10T09:24:01.303Z,1.80
2023-04-10T09:26:33.627Z,1.20
2023-04-10T09:29:05.774Z,1.20
2023-04-10T09:31:37.943Z,3.27
2023-04-10T09:34:11.532Z,1.50
2023-04-10T09:36:38.914Z,2.87
2023-04-10T09:39:06.428Z,1.73
2023-04-10T09:41:33.691Z,1.50
2023-04-10T09:44:12.696Z,1.00
2023-04-10T09:46:39.735Z,4.17
2023-04-10T09:49:07.541Z,0.53
2023-04-10T09:51:39.264Z,1.77
2023-04-10T09:54:06.856Z,1.53
2023-04-10T09:56:38.624Z,1.10
2023-04-10T09:59:07.153Z,1.30
2023-04-10T10:01:36.930Z,1.43
2023-04-10T10:04:04.998Z,1.40
2023-04-10T10:06:32.998Z,1.17
2023-04-10T10:09:04.718Z,1.87
2023-04-10T10:11:34.701Z,2.00
2023-04-10T10:14:11.899Z,0.83
2023-04-10T10:16:51.357Z,2.10
2023-04-10T10:19:27.122Z,2.07
2023-04-10T10:21:55.543Z,4.33
2023-04-10T10:24:26.179Z,5.73
2023-04-10T10:26:55.816Z,3.40
2023-04-10T10:29:24.461Z,2.00
2023-04-10T10:31:53.994Z,1.80
2023-04-10T10:34:21.829Z,4.63
2023-04-10T10:36:48.763Z,3.67
2023-04-10T10:39:25.867Z,2.17
2023-04-10T10:42:09.215Z,2.40
2023-04-10T10:45:05.718Z,2.60
2023-04-10T10:47:36.636Z,3.87
2023-04-10T10:50:04.222Z,3.27
2023-04-10T10:52:44.361Z,2.77
2023-04-10T10:55:31.990Z,2.30
2023-04-10T10:58:07.681Z,1.40
2023-04-10T11:00:53.047Z,1.93
2023-04-10T11:03:20.111Z,1.27
2023-04-10T11:05:57.276Z,2.00
2023-04-10T11:08:33.692Z,1.97
2023-04-10T11:11:07.424Z,2.27
2023-04-10T11:13:39.646Z,1.57
2023-04-10T11:16:10.753Z,1.73
2023-04-10T11:18:59.279Z,3.63
2023-04-10T11:21:34.233Z,1.97
2023-04-10T11:24:01.175Z,2.10
2023-04-10T11:26:34.921Z,2.13
2023-04-10T11:29:06.449Z,1.57
2023-04-10T11:31:34.500Z,0.53
2023-04-10T11:34:06.257Z,1.73
2023-04-10T11:36:34.574Z,4.30
2023-04-10T11:39:08.869Z,1.37
2023-04-10T11:41:55.440Z,1.10
2023-04-10T11:44:40.871Z,2.50
2023-04-10T11:47:12.882Z,2.10
2023-04-10T11:49:39.826Z,0.47
2023-04-10T11:52:07.149Z,1.37
2023-04-10T11:54:34.051Z,0.60
2023-04-10T11:57:06.268Z,2.23
2023-04-10T11:59:34.141Z,1.10
2023-04-10T12:02:16.819Z,1.97
2023-04-10T12:04:44.749Z,1.07
2023-04-10T12:07:12.068Z,1.23
2023-04-10T12:09:39.091Z,3.27
2023-04-10T12:12:07.860Z,4.67
2023-04-10T12:14:40.167Z,1.60
2023-04-10T12:17:10.527Z,0.90
2023-04-10T12:19:39.256Z,8.47
2023-04-10T12:22:07.712Z,1.27
2023-04-10T12:24:51.883Z,0.80
2023-04-10T12:27:20.890Z,1.10
2023-04-10T12:29:49.796Z,0.80
2023-04-10T12:32:17.270Z,1.43
2023-04-10T12:34:58.751Z,2.77
2023-04-10T12:37:46.485Z,2.07
2023-04-10T12:40:14.111Z,1.23
2023-04-10T12:42:44.149Z,1.37
2023-04-10T12:45:13.820Z,1.33
2023-04-10T12:47:49.423Z,2.57
2023-04-10T12:50:18.330Z,1.57
2023-04-10T12:52:46.930Z,1.23
2023-04-10T12:55:17.533Z,1.87
2023-04-10T12:57:46.661Z,1.20
2023-04-10T13:00:16.443Z,1.23
2023-04-10T13:02:44.147Z,0.80
2023-04-10T13:05:11.598Z,1.60
2023-04-10T13:07:39.225Z,1.30
2023-04-10T13:10:07.499Z,0.80
2023-04-10T13:12:36.383Z,1.47
2023-04-10T13:15:03.429Z,2.27
2023-04-10T13:17:30.583Z,2.03
2023-04-10T13:19:57.563Z,1.67
2023-04-10T13:22:24.506Z,1.37
2023-04-10T13:24:51.450Z,1.07
2023-04-10T13:27:18.340Z,1.10
2023-04-10T13:29:45.328Z,1.37
2023-04-10T13:32:12.313Z,1.73
2023-04-10T13:34:39.183Z,1.53
2023-04-10T13:37:06.211Z,1.30
2023-04-10T13:39:33.183Z,1.70
2023-04-10T13:42:02.184Z,0.97
2023-04-10T13:44:29.193Z,1.57
2023-04-10T13:46:57.078Z,6.10
2023-04-10T13:49:24.273Z,1.13
2023-04-10T13:51:51.218Z,1.17
2023-04-10T13:54:18.283Z,1.10
2023-04-10T13:56:46.519Z,1.27
2023-04-10T13:59:13.768Z,0.83
2023-04-10T14:01:41.043Z,1.00
2023-04-10T14:04:08.425Z,0.73
2023-04-10T14:06:35.703Z,1.40
2023-04-10T14:09:02.743Z,0.90
2023-04-10T14:11:29.742Z,0.80
2023-04-10T14:13:56.753Z,1.53
2023-04-10T14:16:23.837Z,1.20
2023-04-10T14:18:50.842Z,0.73
2023-04-10T14:21:19.419Z,1.67
2023-04-10T14:23:47.925Z,2.60
2023-04-10T14:26:14.896Z,1.50
2023-04-10T14:28:42.431Z,0.90
2023-04-10T14:31:09.497Z,1.17
2023-04-10T14:33:36.495Z,1.30
2023-04-10T14:36:03.660Z,0.80
2023-04-10T14:38:30.769Z,2.87
2023-04-10T14:40:57.657Z,1.10
2023-04-10T14:43:24.599Z,0.93
2023-04-10T14:45:51.484Z,0.73
2023-04-10T14:48:19.942Z,1.73
2023-04-10T14:50:48.302Z,0.70
2023-04-10T14:53:15.701Z,1.10
2023-04-10T14:55:42.669Z,1.10
2023-04-10T14:58:11.162Z,1.87
2023-04-10T15:00:38.209Z,2.50
2023-04-10T15:03:06.652Z,1.63
2023-04-10T15:05:33.729Z,2.30
2023-04-10T15:08:00.771Z,1.57
2023-04-10T15:10:30.827Z,1.47
2023-04-10T15:12:57.757Z,1.00
2023-04-10T15:15:24.938Z,1.47
2023-04-10T15:17:51.954Z,1.50
2023-04-10T15:20:19.035Z,1.30
2023-04-10T15:22:48.080Z,2.30
2023-04-10T15:25:15.301Z,5.40
2023-04-10T15:27:42.222Z,1.83
2023-04-10T15:30:09.522Z,1.63
2023-04-10T15:32:38.233Z,1.90
2023-04-10T15:35:06.198Z,2.87
2023-04-10T15:37:35.722Z,1.40
2023-04-10T15:40:06.879Z,1.67
2023-04-10T15:42:34.651Z,1.97
2023-04-10T15:45:01.814Z,1.50
2023-04-10T15:47:28.811Z,1.50
2023-04-10T15:49:58.886Z,2.67
2023-04-10T15:52:25.943Z,1.40
2023-04-10T15:54:52.870Z,1.50
2023-04-10T15:57:19.875Z,1.40
2023-04-10T15:59:46.802Z,5.37
2023-04-10T16:02:13.913Z,3.10
2023-04-10T16:04:41.133Z,2.30
2023-04-10T16:07:08.246Z,6.70
2023-04-10T16:09:35.513Z,1.27
2023-04-10T16:12:03.176Z,2.10
2023-04-10T16:14:30.153Z,1.33
2023-04-10T16:16:57.061Z,2.60
2023-04-10T16:19:23.993Z,1.63
2023-04-10T16:21:51.224Z,1.77
2023-04-10T16:24:18.358Z,1.60
2023-04-10T16:26:45.321Z,1.13
2023-04-10T16:29:12.298Z,2.57
2023-04-10T16:31:39.358Z,2.00
2023-04-10T16:34:06.302Z,2.80
2023-04-10T16:36:33.234Z,4.03
2023-04-10T16:39:00.137Z,2.43
2023-04-10T16:41:27.076Z,1.73
2023-04-10T16:43:54.043Z,2.50
2023-04-10T16:46:21.123Z,2.23
2023-04-10T16:48:48.035Z,3.27
2023-04-10T16:51:17.452Z,2.13
2023-04-10T16:53:44.964Z,3.83
2023-04-10T16:56:11.964Z,7.27
2023-04-10T16:58:41.114Z,2.30
2023-04-10T17:01:18.188Z,3.43
2023-04-10T17:03:47.515Z,2.20
2023-04-10T17:06:15.979Z,3.03
2023-04-10T17:08:43.546Z,2.03
2023-04-10T17:11:12.712Z,4.93
2023-04-10T17:13:41.278Z,2.03
2023-04-10T17:16:09.383Z,2.40
2023-04-10T17:18:36.599Z,2.37
2023-04-10T17:21:03.703Z,1.50
2023-04-10T17:23:30.932Z,1.83
2023-04-10T17:25:57.931Z,1.53
2023-04-10T17:28:24.874Z,2.57
2023-04-10T17:30:51.800Z,2.70
2023-04-10T17:33:18.715Z,5.83
2023-04-10T17:35:45.768Z,3.53
2023-04-10T17:38:13.369Z,2.03
2023-04-10T17:40:41.182Z,3.30
2023-04-10T17:43:08.348Z,3.33
2023-04-10T17:45:39.136Z,2.37
2023-04-10T17:48:06.767Z,2.60
2023-04-10T17:50:34.011Z,2.60
2023-04-10T17:53:01.020Z,5.00
2023-04-10T17:55:28.136Z,3.23
2023-04-10T17:57:57.604Z,5.33
2023-04-10T18:00:24.742Z,7.13
2023-04-10T18:02:57.970Z,16.80
2023-04-10T18:05:25.350Z,22.13
2023-04-10T18:07:52.318Z,12.93
2023-04-10T18:10:19.292Z,9.10
2023-04-10T18:12:46.394Z,6.73
2023-04-10T18:15:14.548Z,2.13
2023-04-10T18:17:41.647Z,2.40
2023-04-10T18:20:09.276Z,3.73
2023-04-10T18:22:36.232Z,2.40
2023-04-10T18:25:03.256Z,4.00
2023-04-10T18:27:34.801Z,3.13
2023-04-10T18:30:02.325Z,14.33
2023-04-10T18:32:29.321Z,16.70
2023-04-10T18:34:56.321Z,6.67
2023-04-10T18:37:23.230Z,2.33
2023-04-10T18:39:50.148Z,2.50
2023-04-10T18:42:17.236Z,4.27
2023-04-10T18:44:44.131Z,2.07
2023-04-10T18:47:11.296Z,7.57
2023-04-10T18:49:38.424Z,4.33
2023-04-10T18:52:05.482Z,3.37
2023-04-10T18:54:34.106Z,2.70
2023-04-10T18:57:01.264Z,3.67
2023-04-10T18:59:28.657Z,2.73
2023-04-10T19:01:55.694Z,2.30
2023-04-10T19:04:23.179Z,4.43
2023-04-10T19:06:50.535Z,2.30
2023-04-10T19:09:17.661Z,4.83
2023-04-10T19:11:44.659Z,8.97
2023-04-10T19:14:11.559Z,3.53
2023-04-10T19:16:38.494Z,2.60
2023-04-10T19:19:05.717Z,3.57
2023-04-10T19:21:32.664Z,3.80
2023-04-10T19:23:59.619Z,3.37
2023-04-10T19:26:26.706Z,3.87
2023-04-10T19:28:55.030Z,3.87
2023-04-10T19:31:23.646Z,5.30
2023-04-10T19:33:50.791Z,3.67
2023-04-10T19:36:19.122Z,3.30
2023-04-10T19:38:48.968Z,4.13
2023-04-10T19:41:16.720Z,3.10
2023-04-10T19:43:44.067Z,4.13
2023-04-10T19:46:21.662Z,3.70
2023-04-10T19:48:49.346Z,5.27
2023-04-10T19:51:16.245Z,4.57
2023-04-10T19:53:43.313Z,4.90
2023-04-10T19:56:10.270Z,4.67
2023-04-10T19:58:41.196Z,5.10
2023-04-10T20:01:09.411Z,7.00
2023-04-10T20:03:37.744Z,4.13
2023-04-10T20:06:09.030Z,8.50
2023-04-10T20:08:36.495Z,4.83
2023-04-10T20:11:06.269Z,3.70
2023-04-10T20:13:34.887Z,4.80
2023-04-10T20:16:02.331Z,8.93
2023-04-10T20:18:29.262Z,4.30
2023-04-10T20:20:56.166Z,5.57
2023-04-10T20:23:23.075Z,6.67
2023-04-10T20:25:50.071Z,3.30
2023-04-10T20:28:17.633Z,4.53
2023-04-10T20:30:44.680Z,3.73
2023-04-10T20:33:11.718Z,3.60
2023-04-10T20:35:38.782Z,3.73
2023-04-10T20:38:05.832Z,3.80
2023-04-10T20:40:32.896Z,2.40
2023-04-10T20:42:59.836Z,2.83
2023-04-10T20:45:26.775Z,3.30
2023-04-10T20:47:53.827Z,3.47
2023-04-10T20:50:20.803Z,3.50
2023-04-10T20:52:47.707Z,2.80
2023-04-10T20:55:14.676Z,4.43
2023-04-10T20:57:41.648Z,3.90
2023-04-10T21:00:09.251Z,3.53
2023-04-10T21:02:36.408Z,3.57
2023-04-10T21:05:03.971Z,4.23
2023-04-10T21:07:31.011Z,3.47
2023-04-10T21:09:57.909Z,3.80
2023-04-10T21:12:24.816Z,5.87
2023-04-10T21:14:51.790Z,4.83
2023-04-10T21:17:19.457Z,3.27
2023-04-10T21:19:46.456Z,3.37
2023-04-10T21:22:13.571Z,3.07
2023-04-10T21:24:40.547Z,3.10
2023-04-10T21:27:08.117Z,3.23
2023-04-10T21:29:35.039Z,4.50
2023-04-10T21:32:01.987Z,3.87
2023-04-10T21:34:28.988Z,3.30
2023-04-10T21:36:55.903Z,4.03
2023-04-10T21:39:22.967Z,3.90
2023-04-10T21:41:49.994Z,3.37
2023-04-10T21:44:17.050Z,3.90
2023-04-10T21:46:43.980Z,3.83
2023-04-10T21:49:11.507Z,3.27
2023-04-10T21:51:40.490Z,5.10
2023-04-10T21:54:07.436Z,3.53
2023-04-10T21:56:36.789Z,3.13
2023-04-10T21:59:03.832Z,2.60
2023-04-10T22:01:31.182Z,4.37
2023-04-10T22:04:00.440Z,3.87
2023-04-10T22:06:27.573Z,4.40
2023-04-10T22:08:54.715Z,3.27
2023-04-10T22:11:21.768Z,4.20
2023-04-10T22:13:48.810Z,3.63
2023-04-10T22:16:15.771Z,5.27
2023-04-10T22:18:42.881Z,3.97
2023-04-10T22:21:09.897Z,4.23
2023-04-10T22:23:36.830Z,3.03
2023-04-10T22:26:03.836Z,4.87
2023-04-10T22:28:30.810Z,3.30
2023-04-10T22:30:57.868Z,3.60
2023-04-10T22:33:24.923Z,4.07
2023-04-10T22:35:53.655Z,3.03
2023-04-10T22:38:20.696Z,6.20
2023-04-10T22:40:47.594Z,3.70
2023-04-10T22:43:14.503Z,4.63
2023-04-10T22:45:42.172Z,2.93
2023-04-10T22:48:09.220Z,2.93
2023-04-10T22:50:36.673Z,3.67
2023-04-10T22:53:03.587Z,3.20
2023-04-10T22:55:30.664Z,3.87
2023-04-10T22:57:57.506Z,3.57
2023-04-10T23:00:24.488Z,3.43
2023-04-10T23:02:51.488Z,3.27
2023-04-10T23:05:18.472Z,3.20
2023-04-10T23:07:45.699Z,3.93
2023-04-10T23:10:12.673Z,3.53
2023-04-10T23:12:39.680Z,4.13
2023-04-10T23:15:08.133Z,3.50
2023-04-10T23:17:35.153Z,2.73
2023-04-10T23:20:02.125Z,3.10
2023-04-10T23:22:29.809Z,3.23
2023-04-10T23:24:57.658Z,5.17
2023-04-10T23:27:24.625Z,3.13
2023-04-10T23:29:51.497Z,2.77
2023-04-10T23:32:18.399Z,3.10
2023-04-10T23:34:45.401Z,2.70
2023-04-10T23:37:12.401Z,4.40
2023-04-10T23:39:40.093Z,2.87
2023-04-10T23:42:07.017Z,3.57
2023-04-10T23:44:34.129Z,4.40
2023-04-10T23:47:01.163Z,2.90
2023-04-10T23:49:28.423Z,3.63
2023-04-10T23:51:55.376Z,3.03
2023-04-10T23:54:22.294Z,5.63
2023-04-10T23:56:49.171Z,3.23
2023-04-10T23:59:17.083Z,3.40
